sensor_id;sensor_type;location;lat;lon;timestamp;P1;durP1;ratioP1;P2;durP2;ratioP2
3085;SDS011;52812;48.960;9.108;2022-07-29T00:02:09;11.00;;;9.70;;
3085;SDS011;52812;48.960;9.108;2022-07-29T00:04:35;11.10;;;9.90;;
3085;SDS011;52812;48.960;9.108;2022-07-29T00:07:01;11.83;;;9.57;;
3085;SDS011;52812;48.960;9.108;2022-07-29T00:09:27;11.43;;;10.10;;
3085;SDS011;52812;48.960;9.108;2022-07-29T00:11:53;11.43;;;9.70;;
3085;SDS011;52812;48.960;9.108;2022-07-29T00:14:23;11.03;;;9.83;;
3085;SDS011;52812;48.960;9.108;2022-07-29T00:16:48;11.70;;;10.07;;
3085;SDS011;52812;48.960;9.108;2022-07-29T00:19:14;10.63;;;9.53;;
3085;SDS011;52812;48.960;9.108;2022-07-29T00:21:40;11.90;;;9.97;;
3085;SDS011;52812;48.960;9.108;2022-07-29T00:24:05;11.43;;;10.03;;
3085;SDS011;52812;48.960;9.108;2022-07-29T00:26:31;12.30;;;10.60;;
3085;SDS011;52812;48.960;9.108;2022-07-29T00:29:01;13.03;;;10.30;;
3085;SDS011;52812;48.960;9.108;2022-07-29T00:31:28;13.93;;;10.80;;
3085;SDS011;52812;48.960;9.108;2022-07-29T00:33:53;12.20;;;10.33;;
3085;SDS011;52812;48.960;9.108;2022-07-29T00:36:19;12.00;;;10.57;;
3085;SDS011;52812;48.960;9.108;2022-07-29T00:38:49;13.87;;;9.63;;
3085;SDS011;52812;48.960;9.108;2022-07-29T00:41:15;10.57;;;9.47;;
3085;SDS011;52812;48.960;9.108;2022-07-29T00:43:42;11.27;;;9.90;;
3085;SDS011;52812;48.960;9.108;2022-07-29T00:46:08;12.80;;;9.50;;
3085;SDS011;52812;48.960;9.108;2022-07-29T00:48:34;11.17;;;9.30;;
3085;SDS011;52812;48.960;9.108;2022-07-29T00:50:59;12.10;;;10.10;;
3085;SDS011;52812;48.960;9.108;2022-07-29T00:53:27;11.00;;;9.80;;
3085;SDS011;52812;48.960;9.108;2022-07-29T00:55:54;11.33;;;9.60;;
3085;SDS011;52812;48.960;9.108;2022-07-29T00:58:20;11.40;;;9.50;;
3085;SDS011;52812;48.960;9.108;2022-07-29T01:00:46;11.67;;;10.47;;
3085;SDS011;52812;48.960;9.108;2022-07-29T01:03:12;11.93;;;10.00;;
3085;SDS011;52812;48.960;9.108;2022-07-29T01:05:37;12.67;;;10.57;;
3085;SDS011;52812;48.960;9.108;2022-07-29T01:08:05;14.77;;;10.23;;
3085;SDS011;52812;48.960;9.108;2022-07-29T01:10:31;13.30;;;10.27;;
3085;SDS011;52812;48.960;9.108;2022-07-29T01:12:58;12.07;;;10.00;;
3085;SDS011;52812;48.960;9.108;2022-07-29T01:15:26;12.27;;;10.50;;
3085;SDS011;52812;48.960;9.108;2022-07-29T01:17:56;11.47;;;9.97;;
3085;SDS011;52812;48.960;9.108;2022-07-29T01:20:50;10.83;;;9.60;;
3085;SDS011;52812;48.960;9.108;2022-07-29T01:23:56;12.80;;;10.60;;
3085;SDS011;52812;48.960;9.108;2022-07-29T01:29:39;10.73;;;9.63;;
3085;SDS011;52812;48.960;9.108;2022-07-29T01:32:10;12.90;;;10.20;;
3085;SDS011;52812;48.960;9.108;2022-07-29T01:42:54;14.37;;;9.90;;
3085;SDS011;52812;48.960;9.108;2022-07-29T01:45:23;11.37;;;10.03;;
3085;SDS011;52812;48.960;9.108;2022-07-29T01:48:05;12.83;;;10.20;;
3085;SDS011;52812;48.960;9.108;2022-07-29T01:51:16;13.23;;;10.60;;
3085;SDS011;52812;48.960;9.108;2022-07-29T01:53:59;13.30;;;10.07;;
3085;SDS011;52812;48.960;9.108;2022-07-29T01:56:47;11.57;;;9.70;;
3085;SDS011;52812;48.960;9.108;2022-07-29T01:59:15;12.30;;;10.30;;
3085;SDS011;52812;48.960;9.108;2022-07-29T02:01:42;13.33;;;10.07;;
3085;SDS011;52812;48.960;9.108;2022-07-29T02:04:10;13.60;;;10.47;;
3085;SDS011;52812;48.960;9.108;2022-07-29T02:06:38;13.10;;;10.10;;
3085;SDS011;52812;48.960;9.108;2022-07-29T02:09:07;11.83;;;9.67;;
3085;SDS011;52812;48.960;9.108;2022-07-29T02:11:35;11.67;;;9.90;;
3085;SDS011;52812;48.960;9.108;2022-07-29T02:14:02;13.40;;;10.37;;
3085;SDS011;52812;48.960;9.108;2022-07-29T02:16:30;11.80;;;10.43;;
3085;SDS011;52812;48.960;9.108;2022-07-29T02:18:57;11.80;;;10.23;;
3085;SDS011;52812;48.960;9.108;2022-07-29T02:21:25;11.60;;;9.03;;
3085;SDS011;52812;48.960;9.108;2022-07-29T02:23:53;11.60;;;9.90;;
3085;SDS011;52812;48.960;9.108;2022-07-29T02:26:20;13.83;;;9.73;;
3085;SDS011;52812;48.960;9.108;2022-07-29T02:28:49;10.30;;;9.10;;
3085;SDS011;52812;48.960;9.108;2022-07-29T02:31:19;10.80;;;9.70;;
3085;SDS011;52812;48.960;9.108;2022-07-29T02:33:47;10.20;;;9.20;;
3085;SDS011;52812;48.960;9.108;2022-07-29T02:36:14;14.00;;;9.40;;
3085;SDS011;52812;48.960;9.108;2022-07-29T02:38:42;10.57;;;9.50;;
3085;SDS011;52812;48.960;9.108;2022-07-29T02:41:28;13.20;;;10.10;;
3085;SDS011;52812;48.960;9.108;2022-07-29T02:44:15;10.67;;;9.30;;
3085;SDS011;52812;48.960;9.108;2022-07-29T02:46:45;10.90;;;9.00;;
3085;SDS011;52812;48.960;9.108;2022-07-29T02:49:25;11.60;;;10.03;;
3085;SDS011;52812;48.960;9.108;2022-07-29T02:52:03;13.53;;;10.00;;
3085;SDS011;52812;48.960;9.108;2022-07-29T02:55:39;12.50;;;9.70;;
3085;SDS011;52812;48.960;9.108;2022-07-29T02:57:42;12.27;;;10.63;;
3085;SDS011;52812;48.960;9.108;2022-07-29T03:00:14;15.60;;;9.97;;
3085;SDS011;52812;48.960;9.108;2022-07-29T03:02:42;14.20;;;10.10;;
3085;SDS011;52812;48.960;9.108;2022-07-29T03:05:16;11.37;;;10.20;;
3085;SDS011;52812;48.960;9.108;2022-07-29T03:07:46;12.00;;;10.17;;
3085;SDS011;52812;48.960;9.108;2022-07-29T03:10:16;12.83;;;10.10;;
3085;SDS011;52812;48.960;9.108;2022-07-29T03:12:42;12.80;;;10.10;;
3085;SDS011;52812;48.960;9.108;2022-07-29T03:15:09;11.97;;;10.17;;
3085;SDS011;52812;48.960;9.108;2022-07-29T03:17:35;11.40;;;10.07;;
3085;SDS011;52812;48.960;9.108;2022-07-29T03:20:02;13.50;;;9.43;;
3085;SDS011;52812;48.960;9.108;2022-07-29T03:22:29;11.63;;;9.50;;
3085;SDS011;52812;48.960;9.108;2022-07-29T03:24:55;11.20;;;9.33;;
3085;SDS011;52812;48.960;9.108;2022-07-29T03:27:20;10.53;;;9.40;;
3085;SDS011;52812;48.960;9.108;2022-07-29T03:29:46;15.90;;;10.20;;
3085;SDS011;52812;48.960;9.108;2022-07-29T03:32:12;13.83;;;9.70;;
3085;SDS011;52812;48.960;9.108;2022-07-29T03:34:37;12.67;;;10.57;;
3085;SDS011;52812;48.960;9.108;2022-07-29T03:37:03;12.83;;;10.37;;
3085;SDS011;52812;48.960;9.108;2022-07-29T03:39:31;11.77;;;10.10;;
3085;SDS011;52812;48.960;9.108;2022-07-29T03:42:01;12.13;;;9.70;;
3085;SDS011;52812;48.960;9.108;2022-07-29T03:44:29;12.50;;;9.90;;
3085;SDS011;52812;48.960;9.108;2022-07-29T03:46:57;12.23;;;10.13;;
3085;SDS011;52812;48.960;9.108;2022-07-29T03:49:26;11.20;;;10.00;;
3085;SDS011;52812;48.960;9.108;2022-07-29T03:51:54;11.13;;;9.47;;
3085;SDS011;52812;48.960;9.108;2022-07-29T03:54:20;11.80;;;10.37;;
3085;SDS011;52812;48.960;9.108;2022-07-29T03:56:46;10.43;;;9.30;;
3085;SDS011;52812;48.960;9.108;2022-07-29T03:59:15;12.00;;;9.57;;
3085;SDS011;52812;48.960;9.108;2022-07-29T04:01:41;11.20;;;9.67;;
3085;SDS011;52812;48.960;9.108;2022-07-29T04:04:08;11.10;;;9.67;;
3085;SDS011;52812;48.960;9.108;2022-07-29T04:06:37;12.50;;;9.40;;
3085;SDS011;52812;48.960;9.108;2022-07-29T04:09:07;11.87;;;9.80;;
3085;SDS011;52812;48.960;9.108;2022-07-29T04:11:33;10.10;;;8.97;;
3085;SDS011;52812;48.960;9.108;2022-07-29T04:13:59;12.07;;;9.33;;
3085;SDS011;52812;48.960;9.108;2022-07-29T04:16:24;12.60;;;10.00;;
3085;SDS011;52812;48.960;9.108;2022-07-29T04:18:50;11.20;;;9.73;;
3085;SDS011;52812;48.960;9.108;2022-07-29T04:21:16;10.93;;;9.70;;
3085;SDS011;52812;48.960;9.108;2022-07-29T04:23:41;11.60;;;9.23;;
3085;SDS011;52812;48.960;9.108;2022-07-29T04:26:10;10.60;;;9.50;;
3085;SDS011;52812;48.960;9.108;2022-07-29T04:28:35;10.50;;;8.90;;
3085;SDS011;52812;48.960;9.108;2022-07-29T04:31:04;10.97;;;9.10;;
3085;SDS011;52812;48.960;9.108;2022-07-29T04:33:29;11.10;;;9.53;;
3085;SDS011;52812;48.960;9.108;2022-07-29T04:35:55;12.33;;;9.80;;
3085;SDS011;52812;48.960;9.108;2022-07-29T04:38:21;11.17;;;9.97;;
3085;SDS011;52812;48.960;9.108;2022-07-29T04:40:47;10.93;;;9.83;;
3085;SDS011;52812;48.960;9.108;2022-07-29T04:43:12;12.70;;;10.00;;
3085;SDS011;52812;48.960;9.108;2022-07-29T04:45:38;11.50;;;9.60;;
3085;SDS011;52812;48.960;9.108;2022-07-29T04:48:03;12.77;;;10.23;;
3085;SDS011;52812;48.960;9.108;2022-07-29T04:50:29;11.33;;;9.67;;
3085;SDS011;52812;48.960;9.108;2022-07-29T04:52:55;12.73;;;10.40;;
3085;SDS011;52812;48.960;9.108;2022-07-29T04:55:20;12.07;;;10.20;;
3085;SDS011;52812;48.960;9.108;2022-07-29T04:57:46;11.10;;;9.93;;
3085;SDS011;52812;48.960;9.108;2022-07-29T05:00:11;15.80;;;10.20;;
3085;SDS011;52812;48.960;9.108;2022-07-29T05:02:37;11.07;;;9.80;;
3085;SDS011;52812;48.960;9.108;2022-07-29T05:05:03;10.50;;;9.20;;
3085;SDS011;52812;48.960;9.108;2022-07-29T05:07:30;12.50;;;10.30;;
3085;SDS011;52812;48.960;9.108;2022-07-29T05:09:56;12.97;;;11.00;;
3085;SDS011;52812;48.960;9.108;2022-07-29T05:12:22;11.33;;;10.00;;
3085;SDS011;52812;48.960;9.108;2022-07-29T05:14:48;11.70;;;9.77;;
3085;SDS011;52812;48.960;9.108;2022-07-29T05:17:14;14.70;;;10.73;;
3085;SDS011;52812;48.960;9.108;2022-07-29T05:19:39;10.90;;;9.70;;
3085;SDS011;52812;48.960;9.108;2022-07-29T05:22:05;10.63;;;9.40;;
3085;SDS011;52812;48.960;9.108;2022-07-29T05:24:30;13.07;;;9.70;;
3085;SDS011;52812;48.960;9.108;2022-07-29T05:26:56;11.77;;;9.43;;
3085;SDS011;52812;48.960;9.108;2022-07-29T05:29:22;11.43;;;9.70;;
3085;SDS011;52812;48.960;9.108;2022-07-29T05:31:47;10.67;;;9.47;;
3085;SDS011;52812;48.960;9.108;2022-07-29T05:34:13;11.03;;;9.77;;
3085;SDS011;52812;48.960;9.108;2022-07-29T05:36:38;11.63;;;10.00;;
3085;SDS011;52812;48.960;9.108;2022-07-29T05:39:04;12.70;;;9.70;;
3085;SDS011;52812;48.960;9.108;2022-07-29T05:41:32;10.53;;;9.43;;
3085;SDS011;52812;48.960;9.108;2022-07-29T05:43:58;12.30;;;9.50;;
3085;SDS011;52812;48.960;9.108;2022-07-29T05:46:24;13.17;;;10.00;;
3085;SDS011;52812;48.960;9.108;2022-07-29T05:48:54;10.00;;;8.90;;
3085;SDS011;52812;48.960;9.108;2022-07-29T05:51:20;10.90;;;9.20;;
3085;SDS011;52812;48.960;9.108;2022-07-29T05:53:45;10.70;;;9.47;;
3085;SDS011;52812;48.960;9.108;2022-07-29T05:56:12;11.30;;;8.37;;
3085;SDS011;52812;48.960;9.108;2022-07-29T05:58:37;9.07;;;8.17;;
3085;SDS011;52812;48.960;9.108;2022-07-29T06:01:03;14.67;;;8.73;;
3085;SDS011;52812;48.960;9.108;2022-07-29T06:03:28;10.97;;;8.80;;
3085;SDS011;52812;48.960;9.108;2022-07-29T06:05:55;10.07;;;8.73;;
3085;SDS011;52812;48.960;9.108;2022-07-29T06:08:20;10.00;;;8.30;;
3085;SDS011;52812;48.960;9.108;2022-07-29T06:10:46;10.07;;;8.90;;
3085;SDS011;52812;48.960;9.108;2022-07-29T06:13:12;12.70;;;8.27;;
3085;SDS011;52812;48.960;9.108;2022-07-29T06:15:37;9.00;;;8.10;;
3085;SDS011;52812;48.960;9.108;2022-07-29T06:18:03;9.63;;;8.20;;
3085;SDS011;52812;48.960;9.108;2022-07-29T06:20:32;10.70;;;8.20;;
3085;SDS011;52812;48.960;9.108;2022-07-29T06:22:58;12.50;;;8.90;;
3085;SDS011;52812;48.960;9.108;2022-07-29T06:25:24;9.23;;;8.33;;
3085;SDS011;52812;48.960;9.108;2022-07-29T06:27:50;9.60;;;8.13;;
3085;SDS011;52812;48.960;9.108;2022-07-29T06:30:16;10.83;;;7.90;;
3085;SDS011;52812;48.960;9.108;2022-07-29T06:32:42;9.27;;;7.80;;
3085;SDS011;52812;48.960;9.108;2022-07-29T06:35:08;8.43;;;7.60;;
3085;SDS011;52812;48.960;9.108;2022-07-29T06:37:33;8.90;;;7.50;;
3085;SDS011;52812;48.960;9.108;2022-07-29T06:39:59;9.60;;;7.70;;
3085;SDS011;52812;48.960;9.108;2022-07-29T06:42:43;8.70;;;7.80;;
3085;SDS011;52812;48.960;9.108;2022-07-29T06:45:09;7.93;;;7.13;;
3085;SDS011;52812;48.960;9.108;2022-07-29T06:47:36;8.30;;;7.20;;
3085;SDS011;52812;48.960;9.108;2022-07-29T06:50:02;10.10;;;7.77;;
3085;SDS011;52812;48.960;9.108;2022-07-29T06:52:28;7.93;;;7.10;;
3085;SDS011;52812;48.960;9.108;2022-07-29T06:54:54;8.83;;;7.40;;
3085;SDS011;52812;48.960;9.108;2022-07-29T06:57:20;9.40;;;6.90;;
3085;SDS011;52812;48.960;9.108;2022-07-29T06:59:46;8.27;;;7.47;;
3085;SDS011;52812;48.960;9.108;2022-07-29T07:02:12;8.03;;;7.23;;
3085;SDS011;52812;48.960;9.108;2022-07-29T07:04:38;9.10;;;7.57;;
3085;SDS011;52812;48.960;9.108;2022-07-29T07:07:04;9.30;;;7.60;;
3085;SDS011;52812;48.960;9.108;2022-07-29T07:09:29;7.83;;;6.43;;
3085;SDS011;52812;48.960;9.108;2022-07-29T07:11:55;7.90;;;6.40;;
3085;SDS011;52812;48.960;9.108;2022-07-29T07:14:21;7.33;;;6.73;;
3085;SDS011;52812;48.960;9.108;2022-07-29T07:16:46;7.00;;;6.30;;
3085;SDS011;52812;48.960;9.108;2022-07-29T07:19:12;7.60;;;6.70;;
3085;SDS011;52812;48.960;9.108;2022-07-29T07:21:38;7.80;;;6.80;;
3085;SDS011;52812;48.960;9.108;2022-07-29T07:24:03;7.00;;;6.30;;
3085;SDS011;52812;48.960;9.108;2022-07-29T07:26:29;6.97;;;6.23;;
3085;SDS011;52812;48.960;9.108;2022-07-29T07:28:55;7.60;;;6.20;;
3085;SDS011;52812;48.960;9.108;2022-07-29T07:31:20;7.17;;;5.77;;
3085;SDS011;52812;48.960;9.108;2022-07-29T07:33:46;6.57;;;5.73;;
3085;SDS011;52812;48.960;9.108;2022-07-29T07:36:12;8.13;;;5.83;;
3085;SDS011;52812;48.960;9.108;2022-07-29T07:38:37;6.00;;;5.40;;
3085;SDS011;52812;48.960;9.108;2022-07-29T07:41:03;6.00;;;5.40;;
3085;SDS011;52812;48.960;9.108;2022-07-29T07:43:28;5.70;;;5.20;;
3085;SDS011;52812;48.960;9.108;2022-07-29T07:45:54;5.50;;;5.00;;
3085;SDS011;52812;48.960;9.108;2022-07-29T07:48:20;6.13;;;5.53;;
3085;SDS011;52812;48.960;9.108;2022-07-29T07:50:45;8.80;;;5.87;;
3085;SDS011;52812;48.960;9.108;2022-07-29T07:53:11;6.43;;;5.83;;
3085;SDS011;52812;48.960;9.108;2022-07-29T07:55:40;6.23;;;5.63;;
3085;SDS011;52812;48.960;9.108;2022-07-29T07:58:06;6.17;;;5.67;;
3085;SDS011;52812;48.960;9.108;2022-07-29T08:00:32;6.83;;;5.30;;
3085;SDS011;52812;48.960;9.108;2022-07-29T08:02:58;6.83;;;6.10;;
3085;SDS011;52812;48.960;9.108;2022-07-29T08:05:23;6.13;;;5.53;;
3085;SDS011;52812;48.960;9.108;2022-07-29T08:07:49;5.60;;;5.00;;
3085;SDS011;52812;48.960;9.108;2022-07-29T08:10:15;5.90;;;5.30;;
3085;SDS011;52812;48.960;9.108;2022-07-29T08:13:02;6.30;;;5.70;;
3085;SDS011;52812;48.960;9.108;2022-07-29T08:15:29;5.80;;;5.30;;
3085;SDS011;52812;48.960;9.108;2022-07-29T08:17:54;8.00;;;4.90;;
3085;SDS011;52812;48.960;9.108;2022-07-29T08:20:20;6.03;;;5.40;;
3085;SDS011;52812;48.960;9.108;2022-07-29T08:22:45;7.10;;;5.30;;
3085;SDS011;52812;48.960;9.108;2022-07-29T08:25:11;5.67;;;5.17;;
3085;SDS011;52812;48.960;9.108;2022-07-29T08:27:36;6.57;;;5.97;;
3085;SDS011;52812;48.960;9.108;2022-07-29T08:30:02;7.17;;;5.27;;
3085;SDS011;52812;48.960;9.108;2022-07-29T08:32:28;7.37;;;5.50;;
3085;SDS011;52812;48.960;9.108;2022-07-29T08:34:54;5.70;;;5.20;;
3085;SDS011;52812;48.960;9.108;2022-07-29T08:37:22;5.13;;;4.70;;
3085;SDS011;52812;48.960;9.108;2022-07-29T08:39:48;5.77;;;5.27;;
3085;SDS011;52812;48.960;9.108;2022-07-29T08:42:13;5.60;;;5.10;;
3085;SDS011;52812;48.960;9.108;2022-07-29T08:44:41;6.23;;;5.63;;
3085;SDS011;52812;48.960;9.108;2022-07-29T08:47:07;6.37;;;5.80;;
3085;SDS011;52812;48.960;9.108;2022-07-29T08:49:33;6.40;;;5.80;;
3085;SDS011;52812;48.960;9.108;2022-07-29T08:52:00;7.20;;;6.50;;
3085;SDS011;52812;48.960;9.108;2022-07-29T08:54:26;6.20;;;5.60;;
3085;SDS011;52812;48.960;9.108;2022-07-29T08:56:53;5.90;;;5.40;;
3085;SDS011;52812;48.960;9.108;2022-07-29T08:59:22;6.30;;;5.80;;
3085;SDS011;52812;48.960;9.108;2022-07-29T09:01:49;6.77;;;6.10;;
3085;SDS011;52812;48.960;9.108;2022-07-29T09:04:17;6.33;;;5.83;;
3085;SDS011;52812;48.960;9.108;2022-07-29T09:06:44;6.27;;;5.67;;
3085;SDS011;52812;48.960;9.108;2022-07-29T09:09:12;7.20;;;5.97;;
3085;SDS011;52812;48.960;9.108;2022-07-29T09:11:39;6.40;;;5.90;;
3085;SDS011;52812;48.960;9.108;2022-07-29T09:14:05;5.90;;;5.30;;
3085;SDS011;52812;48.960;9.108;2022-07-29T09:16:47;6.93;;;6.23;;
3085;SDS011;52812;48.960;9.108;2022-07-29T09:19:22;6.70;;;6.00;;
3085;SDS011;52812;48.960;9.108;2022-07-29T09:21:49;6.23;;;5.73;;
3085;SDS011;52812;48.960;9.108;2022-07-29T09:24:24;7.00;;;6.10;;
3085;SDS011;52812;48.960;9.108;2022-07-29T09:26:52;7.27;;;6.10;;
3085;SDS011;52812;48.960;9.108;2022-07-29T09:29:19;6.20;;;5.70;;
3085;SDS011;52812;48.960;9.108;2022-07-29T09:31:48;6.40;;;5.80;;
3085;SDS011;52812;48.960;9.108;2022-07-29T09:34:16;8.33;;;7.03;;
3085;SDS011;52812;48.960;9.108;2022-07-29T09:36:48;7.03;;;6.03;;
3085;SDS011;52812;48.960;9.108;2022-07-29T09:39:15;7.13;;;6.30;;
3085;SDS011;52812;48.960;9.108;2022-07-29T09:41:52;6.60;;;6.10;;
3085;SDS011;52812;48.960;9.108;2022-07-29T09:44:19;6.30;;;5.70;;
3085;SDS011;52812;48.960;9.108;2022-07-29T09:49:49;7.40;;;6.70;;
3085;SDS011;52812;48.960;9.108;2022-07-29T09:52:26;7.37;;;6.37;;
3085;SDS011;52812;48.960;9.108;2022-07-29T09:54:52;7.90;;;6.40;;
3085;SDS011;52812;48.960;9.108;2022-07-29T09:57:21;7.07;;;5.73;;
3085;SDS011;52812;48.960;9.108;2022-07-29T09:59:55;8.23;;;6.67;;
3085;SDS011;52812;48.960;9.108;2022-07-29T10:02:32;7.10;;;6.40;;
3085;SDS011;52812;48.960;9.108;2022-07-29T10:05:01;8.73;;;6.67;;
3085;SDS011;52812;48.960;9.108;2022-07-29T10:07:43;6.63;;;5.87;;
3085;SDS011;52812;48.960;9.108;2022-07-29T10:10:20;6.90;;;6.30;;
3085;SDS011;52812;48.960;9.108;2022-07-29T10:12:48;8.80;;;6.03;;
3085;SDS011;52812;48.960;9.108;2022-07-29T10:15:15;6.70;;;6.20;;
3085;SDS011;52812;48.960;9.108;2022-07-29T10:17:41;7.03;;;6.33;;
3085;SDS011;52812;48.960;9.108;2022-07-29T10:20:08;7.10;;;6.50;;
3085;SDS011;52812;48.960;9.108;2022-07-29T10:22:34;7.03;;;6.37;;
3085;SDS011;52812;48.960;9.108;2022-07-29T10:24:59;8.13;;;5.97;;
3085;SDS011;52812;48.960;9.108;2022-07-29T10:27:25;8.17;;;6.53;;
3085;SDS011;52812;48.960;9.108;2022-07-29T10:29:50;6.77;;;6.03;;
3085;SDS011;52812;48.960;9.108;2022-07-29T10:32:26;8.27;;;6.37;;
3085;SDS011;52812;48.960;9.108;2022-07-29T10:43:54;6.03;;;5.43;;
3085;SDS011;52812;48.960;9.108;2022-07-29T10:46:38;8.00;;;5.40;;
3085;SDS011;52812;48.960;9.108;2022-07-29T10:49:06;6.37;;;5.10;;
3085;SDS011;52812;48.960;9.108;2022-07-29T10:51:53;8.27;;;5.83;;
3085;SDS011;52812;48.960;9.108;2022-07-29T11:05:07;5.97;;;5.37;;
3085;SDS011;52812;48.960;9.108;2022-07-29T11:07:36;6.23;;;5.63;;
3085;SDS011;52812;48.960;9.108;2022-07-29T11:15:04;5.37;;;4.90;;
3085;SDS011;52812;48.960;9.108;2022-07-29T11:28:53;5.40;;;4.90;;
3085;SDS011;52812;48.960;9.108;2022-07-29T11:39:34;6.40;;;4.97;;
3085;SDS011;52812;48.960;9.108;2022-07-29T11:44:56;6.00;;;5.07;;
3085;SDS011;52812;48.960;9.108;2022-07-29T11:47:30;5.83;;;5.20;;
3085;SDS011;52812;48.960;9.108;2022-07-29T11:49:58;5.70;;;5.00;;
3085;SDS011;52812;48.960;9.108;2022-07-29T11:52:38;6.47;;;4.80;;
3085;SDS011;52812;48.960;9.108;2022-07-29T11:55:08;5.93;;;4.87;;
3085;SDS011;52812;48.960;9.108;2022-07-29T11:57:36;5.90;;;5.10;;
3085;SDS011;52812;48.960;9.108;2022-07-29T12:00:03;6.23;;;4.57;;
3085;SDS011;52812;48.960;9.108;2022-07-29T12:02:43;4.60;;;4.20;;
3085;SDS011;52812;48.960;9.108;2022-07-29T12:05:09;5.73;;;4.70;;
3085;SDS011;52812;48.960;9.108;2022-07-29T12:07:36;5.00;;;4.60;;
3085;SDS011;52812;48.960;9.108;2022-07-29T12:10:03;5.63;;;4.67;;
3085;SDS011;52812;48.960;9.108;2022-07-29T12:12:30;5.37;;;4.60;;
3085;SDS011;52812;48.960;9.108;2022-07-29T12:14:55;5.30;;;4.80;;
3085;SDS011;52812;48.960;9.108;2022-07-29T12:17:31;6.20;;;4.60;;
3085;SDS011;52812;48.960;9.108;2022-07-29T12:19:58;5.23;;;4.80;;
3085;SDS011;52812;48.960;9.108;2022-07-29T12:22:31;6.10;;;5.03;;
3085;SDS011;52812;48.960;9.108;2022-07-29T12:25:03;5.40;;;4.90;;
3085;SDS011;52812;48.960;9.108;2022-07-29T12:27:31;5.67;;;5.17;;
3085;SDS011;52812;48.960;9.108;2022-07-29T12:29:58;5.43;;;4.93;;
3085;SDS011;52812;48.960;9.108;2022-07-29T12:32:33;5.60;;;5.00;;
3085;SDS011;52812;48.960;9.108;2022-07-29T12:35:08;9.93;;;5.83;;
3085;SDS011;52812;48.960;9.108;2022-07-29T12:37:42;6.27;;;5.53;;
3085;SDS011;52812;48.960;9.108;2022-07-29T12:40:09;7.30;;;5.43;;
3085;SDS011;52812;48.960;9.108;2022-07-29T12:42:36;5.67;;;5.17;;
3085;SDS011;52812;48.960;9.108;2022-07-29T12:45:03;6.00;;;5.40;;
3085;SDS011;52812;48.960;9.108;2022-07-29T12:47:29;5.40;;;5.00;;
3085;SDS011;52812;48.960;9.108;2022-07-29T12:50:08;6.70;;;5.40;;
3085;SDS011;52812;48.960;9.108;2022-07-29T12:52:35;5.83;;;5.30;;
3085;SDS011;52812;48.960;9.108;2022-07-29T12:55:01;5.90;;;5.30;;
3085;SDS011;52812;48.960;9.108;2022-07-29T12:57:28;6.77;;;5.40;;
3085;SDS011;52812;48.960;9.108;2022-07-29T13:00:10;8.10;;;5.20;;
3085;SDS011;52812;48.960;9.108;2022-07-29T13:02:38;6.33;;;5.50;;
3085;SDS011;52812;48.960;9.108;2022-07-29T13:05:05;5.93;;;4.70;;
3085;SDS011;52812;48.960;9.108;2022-07-29T13:07:33;5.60;;;4.70;;
3085;SDS011;52812;48.960;9.108;2022-07-29T13:10:15;6.87;;;5.00;;
3085;SDS011;52812;48.960;9.108;2022-07-29T13:15:33;9.80;;;4.90;;
3085;SDS011;52812;48.960;9.108;2022-07-29T13:17:58;4.93;;;4.53;;
3085;SDS011;52812;48.960;9.108;2022-07-29T13:20:26;8.77;;;5.20;;
3085;SDS011;52812;48.960;9.108;2022-07-29T13:22:54;5.23;;;4.70;;
3085;SDS011;52812;48.960;9.108;2022-07-29T13:25:28;5.53;;;4.83;;
3085;SDS011;52812;48.960;9.108;2022-07-29T13:27:55;5.17;;;4.70;;
3085;SDS011;52812;48.960;9.108;2022-07-29T13:30:21;6.53;;;5.03;;
3085;SDS011;52812;48.960;9.108;2022-07-29T13:32:48;6.30;;;4.60;;
3085;SDS011;52812;48.960;9.108;2022-07-29T13:35:14;5.70;;;5.10;;
3085;SDS011;52812;48.960;9.108;2022-07-29T13:37:40;7.53;;;4.70;;
3085;SDS011;52812;48.960;9.108;2022-07-29T13:40:06;5.33;;;4.83;;
3085;SDS011;52812;48.960;9.108;2022-07-29T13:42:33;5.20;;;4.70;;
3085;SDS011;52812;48.960;9.108;2022-07-29T13:44:59;5.20;;;4.70;;
3085;SDS011;52812;48.960;9.108;2022-07-29T13:47:26;4.40;;;4.00;;
3085;SDS011;52812;48.960;9.108;2022-07-29T13:49:52;5.37;;;4.37;;
3085;SDS011;52812;48.960;9.108;2022-07-29T13:52:18;7.27;;;4.53;;
3085;SDS011;52812;48.960;9.108;2022-07-29T13:54:44;5.67;;;4.63;;
3085;SDS011;52812;48.960;9.108;2022-07-29T13:57:19;7.13;;;4.30;;
3085;SDS011;52812;48.960;9.108;2022-07-29T14:02:48;4.40;;;4.10;;
3085;SDS011;52812;48.960;9.108;2022-07-29T14:05:14;4.20;;;3.90;;
3085;SDS011;52812;48.960;9.108;2022-07-29T14:07:39;6.57;;;4.13;;
3085;SDS011;52812;48.960;9.108;2022-07-29T14:10:05;4.23;;;3.83;;
3085;SDS011;52812;48.960;9.108;2022-07-29T14:12:32;4.83;;;4.30;;
3085;SDS011;52812;48.960;9.108;2022-07-29T14:14:57;4.30;;;3.90;;
3085;SDS011;52812;48.960;9.108;2022-07-29T14:17:23;4.87;;;4.20;;
3085;SDS011;52812;48.960;9.108;2022-07-29T14:19:51;4.50;;;4.10;;
3085;SDS011;52812;48.960;9.108;2022-07-29T14:22:17;4.60;;;4.20;;
3085;SDS011;52812;48.960;9.108;2022-07-29T14:24:44;4.97;;;4.17;;
3085;SDS011;52812;48.960;9.108;2022-07-29T14:27:10;6.03;;;4.57;;
3085;SDS011;52812;48.960;9.108;2022-07-29T14:29:36;7.17;;;4.70;;
3085;SDS011;52812;48.960;9.108;2022-07-29T14:32:02;4.20;;;3.80;;
3085;SDS011;52812;48.960;9.108;2022-07-29T14:34:28;4.77;;;4.37;;
3085;SDS011;52812;48.960;9.108;2022-07-29T14:36:54;5.60;;;4.57;;
3085;SDS011;52812;48.960;9.108;2022-07-29T14:39:21;5.40;;;4.40;;
3085;SDS011;52812;48.960;9.108;2022-07-29T14:41:48;5.40;;;4.20;;
3085;SDS011;52812;48.960;9.108;2022-07-29T14:44:14;3.90;;;3.60;;
3085;SDS011;52812;48.960;9.108;2022-07-29T14:46:39;4.33;;;3.93;;
3085;SDS011;52812;48.960;9.108;2022-07-29T14:49:05;4.40;;;4.00;;
3085;SDS011;52812;48.960;9.108;2022-07-29T14:51:31;6.17;;;3.80;;
3085;SDS011;52812;48.960;9.108;2022-07-29T14:53:56;4.40;;;3.83;;
3085;SDS011;52812;48.960;9.108;2022-07-29T14:56:22;5.63;;;3.50;;
3085;SDS011;52812;48.960;9.108;2022-07-29T14:58:48;3.90;;;3.50;;
3085;SDS011;52812;48.960;9.108;2022-07-29T15:01:14;5.00;;;3.20;;
3085;SDS011;52812;48.960;9.108;2022-07-29T15:03:39;3.90;;;3.27;;
3085;SDS011;52812;48.960;9.108;2022-07-29T15:06:05;6.47;;;3.53;;
3085;SDS011;52812;48.960;9.108;2022-07-29T15:08:31;3.80;;;3.10;;
3085;SDS011;52812;48.960;9.108;2022-07-29T15:10:56;3.87;;;3.33;;
3085;SDS011;52812;48.960;9.108;2022-07-29T15:13:24;4.23;;;3.10;;
3085;SDS011;52812;48.960;9.108;2022-07-29T15:15:50;4.20;;;3.33;;
3085;SDS011;52812;48.960;9.108;2022-07-29T15:18:16;6.67;;;3.40;;
3085;SDS011;52812;48.960;9.108;2022-07-29T15:20:42;3.53;;;3.20;;
3085;SDS011;52812;48.960;9.108;2022-07-29T15:23:09;3.80;;;3.10;;
3085;SDS011;52812;48.960;9.108;2022-07-29T15:25:37;3.70;;;3.37;;
3085;SDS011;52812;48.960;9.108;2022-07-29T15:28:12;3.90;;;3.43;;
3085;SDS011;52812;48.960;9.108;2022-07-29T15:30:37;4.50;;;3.20;;
3085;SDS011;52812;48.960;9.108;2022-07-29T15:36:13;3.33;;;3.03;;
3085;SDS011;52812;48.960;9.108;2022-07-29T15:38:41;4.30;;;3.17;;
3085;SDS011;52812;48.960;9.108;2022-07-29T15:41:07;3.80;;;3.10;;
3085;SDS011;52812;48.960;9.108;2022-07-29T15:43:33;3.30;;;3.00;;
3085;SDS011;52812;48.960;9.108;2022-07-29T15:46:01;3.17;;;2.87;;
3085;SDS011;52812;48.960;9.108;2022-07-29T15:48:45;3.43;;;3.13;;
3085;SDS011;52812;48.960;9.108;2022-07-29T15:51:11;4.47;;;3.43;;
3085;SDS011;52812;48.960;9.108;2022-07-29T15:53:36;3.40;;;3.10;;
3085;SDS011;52812;48.960;9.108;2022-07-29T15:56:02;3.60;;;3.23;;
3085;SDS011;52812;48.960;9.108;2022-07-29T15:58:30;5.20;;;2.97;;
3085;SDS011;52812;48.960;9.108;2022-07-29T16:01:05;3.50;;;3.00;;
3085;SDS011;52812;48.960;9.108;2022-07-29T16:03:39;4.10;;;3.20;;
3085;SDS011;52812;48.960;9.108;2022-07-29T16:06:05;3.37;;;2.90;;
3085;SDS011;52812;48.960;9.108;2022-07-29T16:08:31;4.73;;;3.27;;
3085;SDS011;52812;48.960;9.108;2022-07-29T16:10:57;3.80;;;3.17;;